Accueil
METAR-TAF:

METAR-TAF

Aéroports :

Blue Ridge Airport

Martinsville, Virginie, États-Unis

latitude: 36-38N, longitude: 080-01W, altitude: 287 m

Observation

Le bulletin a été fait il y a 7 minutes, à 19:35 UTC
Vent calme
Température 25°C
Humidité 94%
Pression 1012 hPa
Visibilité: 16.1 km
Nuages épars à une hauteur de 2700 ft
Nuages fragmentés à une hauteur de 9000 ft
Ciel couvert à une hauteur de 11000 ft
pluie faible

METAR: KMTV 101935Z AUTO 00000KT 10SM -RA SCT027 BKN090 OVC110 25/24 A2988 RMK AO2 P0001 T02500236

Heure: 15:42 (19:42 UTC)


TAF: absent

Observations et prévisions météorologiques de plus de 4000 aéroports (messages METAR et TAF).

Les stations disponibles sont représentées par des disques jaunes et rouges sur la carte.

Passer la souris dessus pour voir le nom de la station.

Cliquer dessus pour voir les observations et prévisions météorologiques.

Pour changer de carte: cliquez sur les boutons verts avec une croix noire pour zoomer, sur le bouton vert avec un tiret pour effectuer un zoom arrière, ou sur les flèches vertes pour les cartes adjacentes.


METAR-TAF: